Cala Paguro — D5KY9 — position and weather

sailwx.info

Track history (hours):
 
Tides and Currents Weather Stations Pressure Air Temp Water Temp Dewpoint Dewpoint Depression Visibility Wind Speed Wind Dir Waves Ship Positions

Cala Paguro

Last reported at 2018-May-17 17:18 UTC. Time now 2018-May-23 15:10 UTC.
Position N 01°31' E 103°07'.

Length 172 m; draft 8.9 m.

Type: Cargo ship. MMSI: 636017440.

Date/timePositionNaut miles runAvg speedWind from/ knotsBaromVisibWave heightAir tempDewpointWater temp
2018-May-17 17:18N 01°31' E 103°07'514.8
2018-May-17 16:58N 01°27' E 103°11'714.3
2018-May-17 16:28N 01°23' E 103°16'714.1
2018-May-17 15:58N 01°18' E 103°21'713.9
2018-May-17 15:29N 01°14' E 103°27'713.6
2018-May-17 14:59N 01°12' E 103°33'612.3
2018-May-17 14:30N 01°11' E 103°39'612.1
2018-May-17 14:00N 01°09' E 103°45'612.3
2018-May-17 13:30N 01°12' E 103°50'3 7.0
2018-May-17 13:00N 01°15' E 103°51'1 2.0
2018-May-17 12:30N 01°16' E 103°51'0 0.0
2018-May-17 12:00N 01°16' E 103°51'0 0.0
2018-May-17 11:28N 01°16' E 103°51'0 0.0
2018-May-17 11:00N 01°16' E 103°51'0 0.0
2018-May-17 10:30N 01°16' E 103°51'0 0.0
2018-May-17 09:51N 01°16' E 103°51'0 0.0
2018-May-17 09:30N 01°16' E 103°51'0 0.0
2018-May-17 09:00N 01°16' E 103°51'0 0.0
2018-May-17 08:30N 01°16' E 103°51'0 0.0
2018-May-17 08:00N 01°16' E 103°51'0 0.0
2018-May-17 07:24N 01°16' E 103°51'0 0.0
2018-May-17 07:00N 01°16' E 103°51'0 0.0
2018-May-17 06:28N 01°16' E 103°51'0 0.0
2018-May-17 05:52N 01°16' E 103°51'0 0.0
2018-May-17 05:30N 01°16' E 103°51'0 0.0
2018-May-17 05:00N 01°16' E 103°51'0 0.0
2018-May-17 04:30N 01°16' E 103°51'0 0.0
2018-May-17 04:00N 01°16' E 103°51'0 0.0
2018-May-17 03:30N 01°16' E 103°51'0 0.0
2018-May-17 03:00N 01°16' E 103°51'0 0.0
2018-May-17 02:30N 01°16' E 103°51'0 0.0
2018-May-17 02:00N 01°16' E 103°51'0 0.0
2018-May-17 01:30N 01°16' E 103°51'0 0.0
2018-May-17 00:57N 01°16' E 103°51'0 0.0
2018-May-17 00:25N 01°16' E 103°51'0 0.0
2018-May-16 23:58N 01°16' E 103°51'0 0.0
2018-May-16 23:30N 01°16' E 103°51'0 0.0
2018-May-16 23:00N 01°16' E 103°51'0 0.0
2018-May-16 22:30N 01°16' E 103°51'0 0.0
2018-May-16 22:00N 01°16' E 103°51'0 0.0
2018-May-16 21:28N 01°16' E 103°51'0 0.0
2018-May-16 21:00N 01°16' E 103°51'0 0.0
2018-May-16 20:30N 01°16' E 103°51'0 0.5
2018-May-16 20:01N 01°16' E 103°51'1 2.4
2018-May-16 19:31N 01°15' E 103°52'3 6.6
2018-May-16 19:00N 01°14' E 103°55'1 2.9
2018-May-16 18:30N 01°15' E 103°56'4 8.7
2018-May-16 18:00N 01°16' E 104°01'4 8.2
2018-May-16 17:30N 01°17' E 104°05'5 9.0
2018-May-16 17:00N 01°17' E 104°09'4 8.6
2018-May-16 16:29N 01°17' E 104°14'4 9.2
2018-May-16 16:00N 01°18' E 104°18'611.6
2018-May-16 15:30N 01°22' E 104°23'611.6
2018-May-16 14:57N 01°26' E 104°27'510.4
2018-May-16 14:28N 01°29' E 104°32'713.7
2018-May-16 13:58N 01°29' E 104°39'  
Track history (hours):
 
Tides and Currents Weather Stations Pressure Air Temp Water Temp Dewpoint Dewpoint Depression Visibility Wind Speed Wind Dir Waves Ship Positions

Cala Paguro

Last reported at 2018-May-17 17:18 UTC. Time now 2018-May-23 15:10 UTC.
Position N 01°31' E 103°07'.

Length 172 m; draft 8.9 m.

Type: Cargo ship. MMSI: 636017440.

Date/timePositionNaut miles runAvg speedWind from/ knotsBaromVisibWave heightAir tempDewpointWater temp
2018-May-17 17:18N 01°31' E 103°07'514.8
2018-May-17 16:58N 01°27' E 103°11'714.3
2018-May-17 16:28N 01°23' E 103°16'714.1
2018-May-17 15:58N 01°18' E 103°21'713.9
2018-May-17 15:29N 01°14' E 103°27'713.6
2018-May-17 14:59N 01°12' E 103°33'612.3
2018-May-17 14:30N 01°11' E 103°39'612.1
2018-May-17 14:00N 01°09' E 103°45'612.3
2018-May-17 13:30N 01°12' E 103°50'3 7.0
2018-May-17 13:00N 01°15' E 103°51'1 2.0
2018-May-17 12:30N 01°16' E 103°51'0 0.0
2018-May-17 12:00N 01°16' E 103°51'0 0.0
2018-May-17 11:28N 01°16' E 103°51'0 0.0
2018-May-17 11:00N 01°16' E 103°51'0 0.0
2018-May-17 10:30N 01°16' E 103°51'0 0.0
2018-May-17 09:51N 01°16' E 103°51'0 0.0
2018-May-17 09:30N 01°16' E 103°51'0 0.0
2018-May-17 09:00N 01°16' E 103°51'0 0.0
2018-May-17 08:30N 01°16' E 103°51'0 0.0
2018-May-17 08:00N 01°16' E 103°51'0 0.0
2018-May-17 07:24N 01°16' E 103°51'0 0.0
2018-May-17 07:00N 01°16' E 103°51'0 0.0
2018-May-17 06:28N 01°16' E 103°51'0 0.0
2018-May-17 05:52N 01°16' E 103°51'0 0.0
2018-May-17 05:30N 01°16' E 103°51'0 0.0
2018-May-17 05:00N 01°16' E 103°51'0 0.0
2018-May-17 04:30N 01°16' E 103°51'0 0.0
2018-May-17 04:00N 01°16' E 103°51'0 0.0
2018-May-17 03:30N 01°16' E 103°51'0 0.0
2018-May-17 03:00N 01°16' E 103°51'0 0.0
2018-May-17 02:30N 01°16' E 103°51'0 0.0
2018-May-17 02:00N 01°16' E 103°51'0 0.0
2018-May-17 01:30N 01°16' E 103°51'0 0.0
2018-May-17 00:57N 01°16' E 103°51'0 0.0
2018-May-17 00:25N 01°16' E 103°51'0 0.0
2018-May-16 23:58N 01°16' E 103°51'0 0.0
2018-May-16 23:30N 01°16' E 103°51'0 0.0
2018-May-16 23:00N 01°16' E 103°51'0 0.0
2018-May-16 22:30N 01°16' E 103°51'0 0.0
2018-May-16 22:00N 01°16' E 103°51'0 0.0
2018-May-16 21:28N 01°16' E 103°51'0 0.0
2018-May-16 21:00N 01°16' E 103°51'0 0.0
2018-May-16 20:30N 01°16' E 103°51'0 0.5
2018-May-16 20:01N 01°16' E 103°51'1 2.4
2018-May-16 19:31N 01°15' E 103°52'3 6.6
2018-May-16 19:00N 01°14' E 103°55'1 2.9
2018-May-16 18:30N 01°15' E 103°56'4 8.7
2018-May-16 18:00N 01°16' E 104°01'4 8.2
2018-May-16 17:30N 01°17' E 104°05'5 9.0
2018-May-16 17:00N 01°17' E 104°09'4 8.6
2018-May-16 16:29N 01°17' E 104°14'4 9.2
2018-May-16 16:00N 01°18' E 104°18'611.6
2018-May-16 15:30N 01°22' E 104°23'611.6
2018-May-16 14:57N 01°26' E 104°27'510.4
2018-May-16 14:28N 01°29' E 104°32'713.7
2018-May-16 13:58N 01°29' E 104°39'  

Dump ship's entire track history